Bei Facebook empfehlenBei Twitter postenGoogle plusPinterest

Das Wetter im Erzgebirge am 13.08.2017

Wetter und Klima am 13.08.2017 Holzhau im Erzgebirge (630m ü.NN)
Letzte gemessene Temperatur und Uhrzeit der Messung23:45:00 Uhr9.60 °C
Temperatur (Maximum / Höchstwert) und Uhrzeit der Messung15:15:00 Uhr21.80 °C
Temperatur (Minimum / Tiefstwert) und Uhrzeit der Messung23:15:009.50 °C
Errechneter Absolutwert der Temperaturschwankungen zwischen Tmin und Tmax des Tages12.30 K
Errechnete Tagesmitteltemperatur15.36354 °C
Gesamt - Niederschlag des Tages (in flüssiger Form)0.00 Liter / m²
Luftdruck (Maximum / Höchstwert) und Zeitpunkt der Messung23:45:00 Uhr1019.80 hPa
Luftdruck (Minimum / Tiefstwert) und Zeitpunkt der Messung01:45:00 Uhr1015.10 hPa
Errechneter Absolutwert der Luftdruckschwankungen des Tages4.70 hPa
Höchste gemessene Windgeschwindigkeit und Uhrzeit der Messung15:30:00 Uhr6.48 km/h
Errechnete Windhäufigkeit in Relation zu den Messwerten des Tages3.12500 %
Niedrigste Windkühle (Windchill) und Zeitpunkt der Messung23:15:00 Uhr9.50 °C
Taupunkt (Maximum / Höchstwert) und Uhrzeit der Messung14:15:00 Uhr15.70 °C
Taupunkt (Minimum / Tiefstwert) und Uhrzeit der Messung22:45:007.90 °C
Anzahl der automatisch eingelesenen Messwerte 96

Detaillierte Wetter- und Klima- Messwerte für den 13.08.2017 in Holzhau im Erzgebirge (630m ü.NN)
ZeitTemperaturLuftdruckRel. LuftfeuchteWindWindrichtungWindchillTaupunktNiederschlag l/m²
23:45:009.60 °C1019.80 hPa92.00 %8.40 °C 
23:30:009.60 °C1019.80 hPa92.00 %8.40 °C 
23:15:009.50 °C1019.80 hPa91.00 %8.10 °C 
23:00:009.60 °C1019.60 hPa91.00 %8.20 °C 
22:45:009.50 °C1019.70 hPa90.00 %7.90 °C 
22:30:009.60 °C1019.30 hPa90.00 %8.00 °C 
22:15:009.80 °C1019.30 hPa89.00 %8.10 °C 
22:00:009.90 °C1019.30 hPa88.00 %8.00 °C 
21:45:0010.00 °C1019.30 hPa88.00 %8.10 °C 
21:30:0010.30 °C1019.30 hPa86.00 %8.10 °C 
21:15:0010.80 °C1019.20 hPa85.00 %8.40 °C 
21:00:0011.40 °C1019.10 hPa84.00 %8.80 °C 
20:45:0012.20 °C1018.80 hPa83.00 %9.40 °C 
20:30:0012.90 °C1018.80 hPa81.00 %9.70 °C 
20:15:0013.90 °C1018.80 hPa79.00 %10.30 °C 
20:00:0014.60 °C1018.80 hPa78.00 %10.80 °C 
19:45:0015.30 °C1018.70 hPa77.00 %11.30 °C 
19:30:0015.80 °C1018.50 hPa76.00 %11.60 °C 
19:15:0016.30 °C1018.40 hPa74.00 %11.70 °C 
19:00:0016.90 °C1018.50 hPa73.00 %12.00 °C 
18:45:0017.70 °C1018.50 hPa72.00 %12.60 °C 
18:30:0017.90 °C1018.50 hPa71.00 %12.60 °C 
18:15:0018.30 °C1018.50 hPa72.00 %13.20 °C 
18:00:0018.40 °C1018.40 hPa73.00 %13.50 °C 
17:45:0018.60 °C1018.40 hPa72.00 %13.50 °C 
17:30:0019.10 °C1018.50 hPa71.00 %13.70 °C 
17:15:0018.60 °C1018.50 hPa78.00 %14.70 °C 
17:00:0017.90 °C1018.40 hPa79.00 %14.20 °C 
16:45:0017.60 °C1018.30 hPa80.00 %14.10 °C 
16:30:0017.30 °C1018.20 hPa81.00 %14.00 °C 
16:15:0016.80 °C1018.10 hPa79.00 %13.10 °C 
16:00:0017.60 °C1018.10 hPa76.00 %13.30 °C 
15:45:0019.80 °C1018.20 hPa70.00 %14.20 °C 
15:30:0020.90 °C1017.90 hPa70.00 %6.48 km/hSSW20.90 °C15.20 °C 
15:15:0021.80 °C1017.10 hPa68.00 %15.60 °C 
15:00:0021.60 °C1017.10 hPa66.00 %15.00 °C 
14:45:0021.10 °C1017.10 hPa68.00 %15.00 °C 
14:30:0021.40 °C1017.10 hPa68.00 %15.30 °C 
14:15:0021.60 °C1017.00 hPa69.00 %15.70 °C 
14:00:0021.20 °C1017.10 hPa68.00 %15.10 °C 
13:45:0020.50 °C1017.20 hPa72.00 %15.30 °C 
13:30:0020.90 °C1017.20 hPa71.00 %15.40 °C 
13:15:0019.60 °C1017.50 hPa76.00 %2.52 km/hNW19.60 °C15.30 °C 
13:00:0018.50 °C1017.50 hPa77.00 %14.40 °C 
12:45:0018.90 °C1017.20 hPa74.00 %14.20 °C 
12:30:0019.30 °C1017.10 hPa74.00 %14.60 °C 
12:15:0019.30 °C1017.10 hPa73.00 %14.30 °C 
12:00:0020.20 °C1016.90 hPa71.00 %14.80 °C 
11:45:0019.60 °C1017.00 hPa73.00 %14.60 °C 
11:30:0019.50 °C1017.10 hPa73.00 %14.50 °C 
11:15:0019.60 °C1017.10 hPa73.00 %14.60 °C 
11:00:0019.60 °C1016.90 hPa74.00 %14.80 °C 
10:45:0018.80 °C1016.80 hPa76.00 %14.50 °C 
10:30:0018.40 °C1016.80 hPa77.00 %14.30 °C 
10:15:0018.90 °C1016.70 hPa78.00 %15.00 °C 
10:00:0018.10 °C1016.60 hPa81.00 %14.80 °C 
09:45:0017.30 °C1016.80 hPa81.00 %14.00 °C 
09:30:0016.90 °C1016.70 hPa84.00 %14.20 °C 
09:15:0015.90 °C1016.70 hPa85.00 %13.40 °C 
09:00:0015.30 °C1016.70 hPa87.00 %13.20 °C 
08:45:0015.00 °C1016.60 hPa88.00 %13.00 °C 
08:30:0014.90 °C1016.80 hPa88.00 %12.90 °C 
08:15:0014.60 °C1016.50 hPa88.00 %12.60 °C 
08:00:0014.90 °C1016.50 hPa88.00 %12.90 °C 
07:45:0014.80 °C1016.20 hPa89.00 %13.00 °C 
07:30:0014.30 °C1016.40 hPa90.00 %12.70 °C 
07:15:0013.80 °C1016.40 hPa91.00 %12.40 °C 
07:00:0013.30 °C1016.30 hPa91.00 %11.90 °C 
06:45:0013.10 °C1016.40 hPa90.00 %11.50 °C 
06:30:0012.90 °C1016.10 hPa90.00 %11.30 °C 
06:15:0012.90 °C1016.20 hPa90.00 %11.30 °C 
06:00:0013.00 °C1015.90 hPa91.00 %11.60 °C 
05:45:0012.90 °C1016.10 hPa91.00 %11.50 °C 
05:30:0012.90 °C1016.10 hPa91.00 %11.50 °C 
05:15:0012.90 °C1016.10 hPa90.00 %11.30 °C 
05:00:0012.90 °C1016.00 hPa91.00 %11.50 °C 
04:45:0012.90 °C1016.10 hPa90.00 %11.30 °C 
04:30:0013.00 °C1016.20 hPa90.00 %11.40 °C 
04:15:0013.00 °C1016.10 hPa90.00 %11.40 °C 
04:00:0013.00 °C1016.10 hPa90.00 %11.40 °C 
03:45:0013.00 °C1016.10 hPa90.00 %11.40 °C 
03:30:0013.00 °C1015.90 hPa90.00 %11.40 °C 
03:15:0013.00 °C1015.80 hPa90.00 %11.40 °C 
03:00:0013.00 °C1015.30 hPa90.00 %11.40 °C 
02:45:0013.00 °C1015.40 hPa90.00 %11.40 °C 
02:30:0012.90 °C1015.20 hPa90.00 %11.30 °C 
02:15:0012.90 °C1015.20 hPa90.00 %11.30 °C 
02:00:0012.90 °C1015.20 hPa90.00 %11.30 °C 
01:45:0012.80 °C1015.10 hPa90.00 %11.20 °C 
01:30:0012.70 °C1015.10 hPa90.00 %11.10 °C 
01:15:0012.60 °C1015.20 hPa90.00 %11.00 °C 
01:00:0012.60 °C1015.20 hPa90.00 %3.96 km/hWNW12.60 °C11.00 °C 
00:45:0012.90 °C1015.20 hPa89.00 %11.10 °C 
00:30:0012.90 °C1015.30 hPa89.00 %11.10 °C 
00:15:0013.00 °C1015.60 hPa89.00 %11.20 °C 
00:00:0012.90 °C1015.50 hPa89.00 %11.10 °C 

Permanenter Link zu dieser Seite: Wetter im Erzgebirge am 13.08.2017
Performance-Info: Die Erstellung der Seite / Statistik(en) / Tabelle(n) erforderte 5 Datenbankserver-Abfrage(n) und dauerte 123 Millisekunden. (Dieser Messwert ist von der Gesamt-Auslastung des Servers abhängig.)
Erzgebirge - Wetter | Erzgebirge - Wetter (Mobilgeräte) | Komplette Klimadatenbank